createdAt,value
2022-11-27T00:01:22.247Z,78.74
2022-11-27T00:03:48.949Z,78.64
2022-11-27T00:06:16.395Z,78.62
2022-11-27T00:08:43.258Z,78.44
2022-11-27T00:11:11.202Z,78.55
2022-11-27T00:13:38.004Z,78.53
2022-11-27T00:16:05.242Z,78.60
2022-11-27T00:18:32.394Z,78.70
2022-11-27T00:21:05.081Z,78.14
2022-11-27T00:23:32.266Z,77.53
2022-11-27T00:25:58.854Z,78.17
2022-11-27T00:28:25.367Z,78.25
2022-11-27T00:30:51.944Z,78.42
2022-11-27T00:33:18.642Z,77.29
2022-11-27T00:35:45.137Z,77.71
2022-11-27T00:38:11.878Z,78.16
2022-11-27T00:40:38.416Z,77.90
2022-11-27T00:43:05.013Z,77.85
2022-11-27T00:45:31.574Z,77.71
2022-11-27T00:47:58.351Z,77.95
2022-11-27T00:50:24.910Z,77.78
2022-11-27T00:52:51.480Z,77.35
2022-11-27T00:55:18.134Z,77.22
2022-11-27T00:57:45.269Z,77.18
2022-11-27T01:00:12.185Z,77.26
2022-11-27T01:02:38.783Z,77.49
2022-11-27T01:05:06.062Z,77.49
2022-11-27T01:07:32.550Z,77.65
2022-11-27T01:09:59.096Z,77.44
2022-11-27T01:12:25.598Z,77.43
2022-11-27T01:14:52.132Z,77.59
2022-11-27T01:17:18.703Z,77.20
2022-11-27T01:19:45.187Z,77.62
2022-11-27T01:22:11.658Z,77.22
2022-11-27T01:24:38.508Z,77.40
2022-11-27T01:27:05.415Z,76.95
2022-11-27T01:29:32.012Z,76.68
2022-11-27T01:31:58.559Z,76.61
2022-11-27T01:34:25.018Z,76.68
2022-11-27T01:36:51.492Z,77.16
2022-11-27T01:39:19.258Z,77.45
2022-11-27T01:41:46.101Z,77.06
2022-11-27T01:44:24.993Z,77.54
2022-11-27T01:47:02.006Z,77.60
2022-11-27T01:49:48.744Z,77.01
2022-11-27T01:52:19.568Z,77.29
2022-11-27T01:54:51.877Z,77.28
2022-11-27T01:57:19.386Z,76.67
2022-11-27T01:59:46.589Z,76.46
2022-11-27T02:02:13.188Z,76.14
2022-11-27T02:04:39.904Z,76.23
2022-11-27T02:07:06.670Z,76.30
2022-11-27T02:09:33.222Z,76.77
2022-11-27T02:12:06.844Z,76.98
2022-11-27T02:14:33.331Z,76.80
2022-11-27T02:17:03.636Z,77.05
2022-11-27T02:19:42.500Z,76.93
2022-11-27T02:22:19.565Z,76.96
2022-11-27T02:24:50.960Z,77.44
2022-11-27T02:27:36.315Z,77.47
2022-11-27T02:30:03.092Z,77.62
2022-11-27T02:32:31.961Z,77.10
2022-11-27T02:35:03.158Z,76.86
2022-11-27T02:37:32.464Z,76.64
2022-11-27T02:40:03.607Z,76.38
2022-11-27T02:42:34.643Z,76.28
2022-11-27T02:45:12.215Z,75.94
2022-11-27T02:47:40.073Z,76.23
2022-11-27T02:50:10.393Z,77.27
2022-11-27T02:52:36.867Z,76.98
2022-11-27T02:55:04.336Z,76.52
2022-11-27T02:57:30.949Z,76.74
2022-11-27T02:59:57.756Z,76.60
2022-11-27T03:02:33.426Z,76.58
2022-11-27T03:05:00.433Z,77.21
2022-11-27T03:07:36.307Z,77.02
2022-11-27T03:10:04.865Z,77.01
2022-11-27T03:12:31.468Z,77.17
2022-11-27T03:14:57.941Z,77.09
2022-11-27T03:17:43.733Z,77.46
2022-11-27T03:20:15.461Z,76.88
2022-11-27T03:22:43.129Z,76.77
2022-11-27T03:25:09.607Z,76.82
2022-11-27T03:27:38.751Z,76.86
2022-11-27T03:30:06.364Z,77.44
2022-11-27T03:32:33.325Z,77.62
2022-11-27T03:34:59.878Z,76.92
2022-11-27T03:37:26.396Z,77.19
2022-11-27T03:39:53.072Z,77.04
2022-11-27T03:42:34.915Z,76.86
2022-11-27T03:45:04.587Z,77.21
2022-11-27T03:47:50.222Z,77.12
2022-11-27T03:50:31.987Z,77.14
2022-11-27T03:53:01.331Z,77.25
2022-11-27T03:55:30.241Z,77.24
2022-11-27T03:57:58.466Z,77.12
2022-11-27T04:00:25.982Z,77.26
2022-11-27T04:02:52.663Z,77.35
2022-11-27T04:05:19.892Z,77.53
2022-11-27T04:07:46.726Z,77.41
2022-11-27T04:10:13.442Z,77.24
2022-11-27T04:12:39.970Z,77.11
2022-11-27T04:15:06.972Z,77.05
2022-11-27T04:17:33.559Z,77.08
2022-11-27T04:20:00.419Z,76.79
2022-11-27T04:22:26.902Z,76.56
2022-11-27T04:24:53.855Z,77.06
2022-11-27T04:27:20.497Z,76.86
2022-11-27T04:29:47.289Z,76.86
2022-11-27T04:32:13.851Z,76.92
2022-11-27T04:34:40.841Z,77.22
2022-11-27T04:37:07.701Z,76.77
2022-11-27T04:39:34.194Z,77.00
2022-11-27T04:42:00.709Z,77.17
2022-11-27T04:44:27.322Z,77.20
2022-11-27T04:46:54.058Z,77.32
2022-11-27T04:49:20.761Z,77.24
2022-11-27T04:51:47.257Z,77.23
2022-11-27T04:54:13.746Z,77.65
2022-11-27T04:56:40.297Z,77.31
2022-11-27T04:59:06.863Z,77.05
2022-11-27T05:01:34.369Z,77.21
2022-11-27T05:04:06.929Z,77.13
2022-11-27T05:06:33.419Z,77.16
2022-11-27T05:09:02.185Z,77.03
2022-11-27T05:11:30.073Z,78.13
2022-11-27T05:14:15.162Z,77.60
2022-11-27T05:16:42.507Z,77.70
2022-11-27T05:19:09.926Z,77.53
2022-11-27T05:21:37.285Z,77.36
2022-11-27T05:24:06.173Z,77.53
2022-11-27T05:26:33.273Z,77.31
2022-11-27T05:28:59.961Z,77.57
2022-11-27T05:31:26.578Z,77.46
2022-11-27T05:33:53.350Z,78.19
2022-11-27T05:36:20.034Z,77.90
2022-11-27T05:38:46.520Z,77.56
2022-11-27T05:41:13.055Z,76.89
2022-11-27T05:43:39.658Z,76.70
2022-11-27T05:46:07.011Z,76.53
2022-11-27T05:48:34.197Z,76.20
2022-11-27T05:51:00.869Z,76.36
2022-11-27T05:53:27.493Z,76.77
2022-11-27T05:55:54.071Z,75.75
2022-11-27T05:58:20.794Z,76.15
2022-11-27T06:00:47.314Z,76.39
2022-11-27T06:03:13.880Z,76.72
2022-11-27T06:05:41.262Z,76.49
2022-11-27T06:08:07.813Z,75.45
2022-11-27T06:10:34.414Z,75.60
2022-11-27T06:13:00.968Z,75.68
2022-11-27T06:15:27.525Z,74.98
2022-11-27T06:17:54.034Z,75.29
2022-11-27T06:20:20.598Z,75.25
2022-11-27T06:22:47.238Z,75.35
2022-11-27T06:25:13.953Z,74.84
2022-11-27T06:27:40.623Z,74.62
2022-11-27T06:30:08.041Z,74.58
2022-11-27T06:32:35.202Z,73.96
2022-11-27T06:35:01.710Z,73.77
2022-11-27T06:37:28.238Z,74.65
2022-11-27T06:39:54.781Z,75.62
2022-11-27T06:42:21.477Z,75.15
2022-11-27T06:44:48.051Z,75.35
2022-11-27T06:47:15.269Z,74.97
2022-11-27T06:49:41.791Z,74.83
2022-11-27T06:52:08.299Z,75.49
2022-11-27T06:54:34.862Z,75.80
2022-11-27T06:57:01.394Z,76.24
2022-11-27T06:59:27.883Z,77.22
2022-11-27T07:01:54.564Z,77.24
2022-11-27T07:04:21.112Z,77.26
2022-11-27T07:06:47.647Z,77.35
2022-11-27T07:09:14.221Z,77.03
2022-11-27T07:11:40.734Z,77.01
2022-11-27T07:14:07.788Z,77.08
2022-11-27T07:16:35.305Z,76.56
2022-11-27T07:19:03.517Z,76.19
2022-11-27T07:21:30.134Z,75.82
2022-11-27T07:23:56.763Z,75.01
2022-11-27T07:26:24.295Z,74.70
2022-11-27T07:28:50.959Z,75.64
2022-11-27T07:31:19.081Z,76.03
2022-11-27T07:33:48.777Z,77.18
2022-11-27T07:36:19.304Z,76.93
2022-11-27T07:38:46.395Z,77.12
2022-11-27T07:41:13.061Z,76.65
2022-11-27T07:43:39.815Z,76.72
2022-11-27T07:46:07.364Z,75.75
2022-11-27T07:48:33.830Z,75.67
2022-11-27T07:51:00.776Z,76.07
2022-11-27T07:53:27.293Z,76.64
2022-11-27T07:55:53.767Z,77.45
2022-11-27T07:58:20.241Z,77.17
2022-11-27T08:00:48.499Z,77.34
2022-11-27T08:03:16.642Z,77.24
2022-11-27T08:05:43.252Z,77.12
2022-11-27T08:08:09.743Z,77.46
2022-11-27T08:10:36.628Z,77.03
2022-11-27T08:13:05.422Z,77.03
2022-11-27T08:15:32.218Z,76.94
2022-11-27T08:17:58.749Z,77.52
2022-11-27T08:20:25.404Z,77.45
2022-11-27T08:22:51.880Z,77.22
2022-11-27T08:25:19.169Z,76.54
2022-11-27T08:27:48.636Z,77.01
2022-11-27T08:30:17.318Z,77.30
2022-11-27T08:32:44.142Z,77.31
2022-11-27T08:35:11.563Z,76.95
2022-11-27T08:37:38.462Z,77.17
2022-11-27T08:40:05.514Z,77.50
2022-11-27T08:42:32.630Z,77.07
2022-11-27T08:44:59.443Z,77.44
2022-11-27T08:47:26.451Z,77.32
2022-11-27T08:49:53.555Z,77.32
2022-11-27T08:52:20.800Z,77.82
2022-11-27T08:54:50.904Z,77.47
2022-11-27T08:57:20.992Z,77.85
2022-11-27T08:59:48.071Z,77.64
2022-11-27T09:02:14.562Z,77.60
2022-11-27T09:04:41.266Z,77.86
2022-11-27T09:07:08.113Z,77.79
2022-11-27T09:09:35.931Z,77.45
2022-11-27T09:12:02.455Z,77.67
2022-11-27T09:14:29.095Z,77.40
2022-11-27T09:16:55.709Z,77.60
2022-11-27T09:19:22.241Z,76.90
2022-11-27T09:21:49.637Z,76.68
2022-11-27T09:24:16.226Z,77.07
2022-11-27T09:26:44.909Z,76.79
2022-11-27T09:29:11.465Z,76.38
2022-11-27T09:31:38.284Z,76.24
2022-11-27T09:34:05.672Z,76.39
2022-11-27T09:36:32.227Z,76.74
2022-11-27T09:38:59.005Z,75.60
2022-11-27T09:41:25.547Z,75.23
2022-11-27T09:43:53.888Z,75.11
2022-11-27T09:46:28.193Z,74.73
2022-11-27T09:48:54.764Z,74.65
2022-11-27T09:51:25.116Z,75.22
2022-11-27T09:53:52.826Z,74.74
2022-11-27T09:56:19.429Z,74.74
2022-11-27T09:58:56.677Z,75.56
2022-11-27T10:01:38.419Z,74.94
2022-11-27T10:04:13.229Z,74.43
2022-11-27T10:06:52.203Z,74.17
2022-11-27T10:09:25.263Z,73.81
2022-11-27T10:12:09.620Z,73.64
2022-11-27T10:14:39.964Z,72.38
2022-11-27T10:17:16.960Z,73.23
2022-11-27T10:20:02.368Z,73.45
2022-11-27T10:22:32.695Z,73.59
2022-11-27T10:25:03.609Z,72.88
2022-11-27T10:27:36.214Z,73.61
2022-11-27T10:30:03.895Z,73.38
2022-11-27T10:32:54.598Z,73.50
2022-11-27T10:35:19.497Z,73.45
2022-11-27T10:37:47.502Z,72.42
2022-11-27T10:40:14.158Z,71.99
2022-11-27T10:42:43.695Z,72.40
2022-11-27T10:45:17.955Z,72.08
2022-11-27T10:47:48.474Z,70.84
2022-11-27T10:50:19.067Z,70.31
2022-11-27T10:52:56.436Z,70.97
2022-11-27T10:55:36.343Z,70.65
2022-11-27T10:58:02.865Z,70.60
2022-11-27T11:00:29.560Z,71.65
2022-11-27T11:02:59.561Z,69.82
2022-11-27T11:06:11.780Z,69.56
2022-11-27T11:08:16.991Z,70.65
2022-11-27T11:10:50.723Z,70.93
2022-11-27T11:13:21.512Z,70.62
2022-11-27T11:16:03.951Z,71.37
2022-11-27T11:18:34.982Z,71.47
2022-11-27T11:21:02.641Z,70.92
2022-11-27T11:23:33.345Z,71.57
2022-11-27T11:26:01.745Z,70.89
2022-11-27T11:28:28.401Z,71.03
2022-11-27T11:30:56.704Z,69.26
2022-11-27T11:33:23.236Z,69.70
2022-11-27T11:35:53.847Z,69.24
2022-11-27T11:38:22.950Z,67.99
2022-11-27T11:41:00.618Z,69.22
2022-11-27T11:43:35.554Z,68.05
2022-11-27T11:46:16.749Z,68.86
2022-11-27T11:48:52.747Z,66.51
2022-11-27T11:51:27.878Z,66.60
2022-11-27T11:54:16.030Z,66.09
2022-11-27T11:56:44.869Z,65.75
2022-11-27T11:59:17.458Z,65.27
2022-11-27T12:01:46.224Z,66.51
2022-11-27T12:04:18.879Z,65.41
2022-11-27T12:07:14.672Z,64.98
2022-11-27T12:09:44.226Z,65.64
2022-11-27T12:12:18.109Z,65.81
2022-11-27T12:14:50.680Z,67.03
2022-11-27T12:17:23.647Z,66.49
2022-11-27T12:19:54.110Z,65.08
2022-11-27T12:22:40.584Z,64.76
2022-11-27T12:25:22.810Z,63.96
2022-11-27T12:28:09.727Z,64.93
2022-11-27T12:30:42.467Z,63.80
2022-11-27T12:33:18.467Z,63.74
2022-11-27T12:36:04.389Z,62.87
2022-11-27T12:39:03.141Z,64.85
2022-11-27T12:41:48.314Z,63.54
2022-11-27T12:44:26.346Z,60.52
2022-11-27T12:47:12.496Z,62.09
2022-11-27T12:49:43.722Z,61.83
2022-11-27T12:52:14.487Z,61.86
2022-11-27T12:54:43.770Z,61.98
2022-11-27T12:57:13.305Z,64.06
2022-11-27T12:59:43.578Z,64.54
2022-11-27T13:02:10.079Z,63.72
2022-11-27T13:04:39.692Z,63.17
2022-11-27T13:07:08.478Z,62.97
2022-11-27T13:09:40.228Z,63.15
2022-11-27T13:12:06.777Z,64.34
2022-11-27T13:14:33.455Z,64.05
2022-11-27T13:17:04.234Z,62.59
2022-11-27T13:19:35.574Z,63.33
2022-11-27T13:22:06.440Z,63.98
2022-11-27T13:24:33.049Z,64.15
2022-11-27T13:27:06.617Z,62.78
2022-11-27T13:29:53.188Z,62.77
2022-11-27T13:32:33.278Z,63.96
2022-11-27T13:35:02.330Z,61.75
2022-11-27T13:37:28.856Z,61.48
2022-11-27T13:40:17.644Z,60.08
2022-11-27T13:42:44.973Z,60.68
2022-11-27T13:45:17.784Z,62.84
2022-11-27T13:47:44.879Z,62.38
2022-11-27T13:50:15.153Z,61.22
2022-11-27T13:53:00.201Z,61.72
2022-11-27T13:55:28.283Z,60.96
2022-11-27T13:57:55.753Z,61.99
2022-11-27T14:00:31.473Z,59.04
2022-11-27T14:02:58.298Z,61.69
2022-11-27T14:05:34.744Z,62.04
2022-11-27T14:08:01.290Z,62.31
2022-11-27T14:10:29.278Z,63.27
2022-11-27T14:13:01.655Z,63.34
2022-11-27T14:15:29.607Z,62.96
2022-11-27T14:18:15.156Z,64.23
2022-11-27T14:20:48.690Z,61.99
2022-11-27T14:23:15.247Z,63.38
2022-11-27T14:25:41.715Z,62.89
2022-11-27T14:28:14.340Z,59.18
2022-11-27T14:30:51.358Z,61.93
2022-11-27T14:33:19.631Z,60.29
2022-11-27T14:35:49.970Z,61.08
2022-11-27T14:38:16.683Z,60.88
2022-11-27T14:40:43.685Z,61.99
2022-11-27T14:43:10.883Z,60.76
2022-11-27T14:45:37.441Z,58.71
2022-11-27T14:48:03.970Z,61.18
2022-11-27T14:50:30.496Z,59.33
2022-11-27T14:52:56.990Z,59.01
2022-11-27T14:55:23.526Z,59.34
2022-11-27T14:57:50.181Z,58.53
2022-11-27T15:00:16.918Z,59.29
2022-11-27T15:02:43.686Z,59.66
2022-11-27T15:05:36.585Z,58.81
2022-11-27T15:08:03.081Z,59.75
2022-11-27T15:10:35.878Z,61.15
2022-11-27T15:13:03.242Z,61.23
2022-11-27T15:15:30.529Z,60.02
2022-11-27T15:18:04.650Z,59.92
2022-11-27T15:20:35.723Z,60.68
2022-11-27T15:23:02.303Z,61.82
2022-11-27T15:25:35.485Z,61.49
2022-11-27T15:28:02.016Z,58.72
2022-11-27T15:30:28.640Z,62.17
2022-11-27T15:32:56.073Z,60.47
2022-11-27T15:35:24.311Z,60.94
2022-11-27T15:37:51.766Z,61.45
2022-11-27T15:40:27.926Z,59.82
2022-11-27T15:42:54.486Z,62.27
2022-11-27T15:45:21.105Z,60.57
2022-11-27T15:47:47.693Z,60.74
2022-11-27T15:50:15.476Z,58.35
2022-11-27T15:52:42.017Z,61.55
2022-11-27T15:55:12.988Z,62.67
2022-11-27T15:57:39.645Z,61.51
2022-11-27T16:00:09.910Z,63.57
2022-11-27T16:02:39.604Z,61.62
2022-11-27T16:05:06.885Z,61.30
2022-11-27T16:07:33.737Z,61.62
2022-11-27T16:10:00.413Z,62.94
2022-11-27T16:12:26.995Z,63.61
2022-11-27T16:14:53.503Z,64.54
2022-11-27T16:17:21.594Z,62.95
2022-11-27T16:19:48.103Z,62.60
2022-11-27T16:22:14.635Z,62.31
2022-11-27T16:24:41.528Z,61.57
2022-11-27T16:27:08.242Z,62.61
2022-11-27T16:29:34.768Z,63.62
2022-11-27T16:32:02.233Z,63.66
2022-11-27T16:34:28.870Z,63.65
2022-11-27T16:36:55.414Z,62.38
2022-11-27T16:39:22.536Z,63.37
2022-11-27T16:41:49.727Z,63.17
2022-11-27T16:44:18.623Z,63.84
2022-11-27T16:46:46.182Z,64.29
2022-11-27T16:49:13.102Z,64.52
2022-11-27T16:51:40.526Z,64.20
2022-11-27T16:54:12.219Z,63.18
2022-11-27T16:56:41.309Z,64.64
2022-11-27T16:59:09.477Z,63.69
2022-11-27T17:01:36.997Z,64.43
2022-11-27T17:04:04.814Z,65.42
2022-11-27T17:06:32.209Z,64.75
2022-11-27T17:08:59.285Z,65.69
2022-11-27T17:11:27.631Z,63.94
2022-11-27T17:13:56.863Z,63.47
2022-11-27T17:16:23.533Z,64.72
2022-11-27T17:18:50.374Z,66.12
2022-11-27T17:21:35.501Z,66.81
2022-11-27T17:24:05.502Z,66.11
2022-11-27T17:26:42.349Z,65.39
2022-11-27T17:29:10.298Z,65.91
2022-11-27T17:31:37.962Z,63.97
2022-11-27T17:34:05.137Z,65.20
2022-11-27T17:36:36.870Z,66.28
2022-11-27T17:39:04.716Z,65.17
2022-11-27T17:41:31.302Z,65.43
2022-11-27T17:43:58.005Z,64.53
2022-11-27T17:46:28.495Z,65.08
2022-11-27T17:48:55.570Z,66.40
2022-11-27T17:51:22.458Z,66.13
2022-11-27T17:53:49.352Z,65.10
2022-11-27T17:56:16.762Z,66.00
2022-11-27T17:58:43.879Z,65.34
2022-11-27T18:01:23.608Z,65.47
2022-11-27T18:03:51.034Z,67.11
2022-11-27T18:06:18.720Z,66.11
2022-11-27T18:08:46.524Z,66.49
2022-11-27T18:11:15.828Z,67.21
2022-11-27T18:13:42.684Z,65.85
2022-11-27T18:16:12.098Z,66.48
2022-11-27T18:18:38.713Z,67.28
2022-11-27T18:21:08.435Z,68.41
2022-11-27T18:23:36.135Z,67.60
2022-11-27T18:26:06.117Z,67.09
2022-11-27T18:28:32.726Z,67.47
2022-11-27T18:31:03.675Z,67.85
2022-11-27T18:33:30.182Z,67.12
2022-11-27T18:35:56.798Z,67.48
2022-11-27T18:38:23.333Z,66.71
2022-11-27T18:40:49.887Z,67.00
2022-11-27T18:43:16.487Z,67.94
2022-11-27T18:45:43.550Z,68.20
2022-11-27T18:48:10.286Z,67.80
2022-11-27T18:50:36.901Z,67.99
2022-11-27T18:53:03.764Z,68.60
2022-11-27T18:55:34.613Z,67.53
2022-11-27T18:58:01.322Z,67.32
2022-11-27T19:00:31.436Z,66.49
2022-11-27T19:02:58.588Z,67.22
2022-11-27T19:05:25.345Z,65.78
2022-11-27T19:07:52.345Z,67.55
2022-11-27T19:10:18.979Z,67.37
2022-11-27T19:12:45.655Z,66.86
2022-11-27T19:15:12.562Z,67.08
2022-11-27T19:17:39.619Z,67.26
2022-11-27T19:20:07.984Z,67.42
2022-11-27T19:22:37.385Z,68.19
2022-11-27T19:25:05.187Z,68.56
2022-11-27T19:27:33.295Z,68.53
2022-11-27T19:30:00.537Z,66.98
2022-11-27T19:32:27.421Z,66.96
2022-11-27T19:34:53.948Z,68.16
2022-11-27T19:37:33.605Z,67.74
2022-11-27T19:40:00.972Z,67.50
2022-11-27T19:42:28.367Z,68.07
2022-11-27T19:44:55.965Z,67.54
2022-11-27T19:47:22.556Z,68.09
2022-11-27T19:49:49.236Z,67.70
2022-11-27T19:52:16.025Z,67.70
2022-11-27T19:54:44.441Z,67.75
2022-11-27T19:57:11.106Z,67.99
2022-11-27T19:59:39.176Z,67.29
2022-11-27T20:02:05.834Z,67.72
2022-11-27T20:04:32.602Z,67.73
2022-11-27T20:06:59.949Z,68.07
2022-11-27T20:09:26.791Z,68.26
2022-11-27T20:11:53.365Z,66.96
2022-11-27T20:14:20.820Z,67.78
2022-11-27T20:16:47.564Z,68.28
2022-11-27T20:19:14.374Z,68.26
2022-11-27T20:21:42.016Z,68.51
2022-11-27T20:24:08.726Z,68.04
2022-11-27T20:26:41.319Z,68.50
2022-11-27T20:29:09.687Z,68.16
2022-11-27T20:31:37.956Z,68.84
2022-11-27T20:34:05.233Z,69.49
2022-11-27T20:36:33.726Z,69.42
2022-11-27T20:39:01.393Z,68.68
2022-11-27T20:41:28.926Z,69.00
2022-11-27T20:43:57.121Z,68.00
2022-11-27T20:46:24.284Z,68.99
2022-11-27T20:48:51.483Z,68.84
2022-11-27T20:51:19.501Z,69.43
2022-11-27T20:53:46.957Z,68.84
2022-11-27T20:56:14.102Z,68.59
2022-11-27T20:58:41.313Z,67.14
2022-11-27T21:01:18.111Z,68.40
2022-11-27T21:03:45.451Z,68.00
2022-11-27T21:06:12.464Z,68.26
2022-11-27T21:08:39.220Z,68.89
2022-11-27T21:11:16.196Z,69.05
2022-11-27T21:13:44.224Z,67.47
2022-11-27T21:16:11.271Z,67.59
2022-11-27T21:18:38.075Z,67.48
2022-11-27T21:21:07.819Z,68.27
2022-11-27T21:23:34.447Z,67.52
2022-11-27T21:26:01.065Z,67.96
2022-11-27T21:28:28.086Z,68.48
2022-11-27T21:30:54.680Z,69.14
2022-11-27T21:33:21.535Z,68.71
2022-11-27T21:35:48.294Z,68.68
2022-11-27T21:38:14.906Z,68.38
2022-11-27T21:40:41.582Z,68.74
2022-11-27T21:43:08.633Z,68.34
2022-11-27T21:45:36.489Z,68.36
2022-11-27T21:48:03.020Z,67.02
2022-11-27T21:50:30.324Z,68.34
2022-11-27T21:52:56.942Z,68.75
2022-11-27T21:55:24.038Z,69.03
2022-11-27T21:57:50.828Z,69.10
2022-11-27T22:00:17.772Z,68.97
2022-11-27T22:02:45.406Z,69.45
2022-11-27T22:05:12.057Z,67.80
2022-11-27T22:07:38.719Z,67.58
2022-11-27T22:10:07.328Z,69.16
2022-11-27T22:12:34.513Z,67.74
2022-11-27T22:15:01.077Z,67.85
2022-11-27T22:17:27.975Z,66.72
2022-11-27T22:19:54.544Z,67.74
2022-11-27T22:22:21.091Z,66.78
2022-11-27T22:24:47.856Z,67.91
2022-11-27T22:27:14.841Z,67.21
2022-11-27T22:29:41.317Z,67.91
2022-11-27T22:32:08.718Z,67.80
2022-11-27T22:34:35.355Z,67.86
2022-11-27T22:37:04.145Z,66.63
2022-11-27T22:39:30.859Z,67.30
2022-11-27T22:41:57.408Z,67.65
2022-11-27T22:44:24.018Z,68.29
2022-11-27T22:46:50.589Z,66.23
2022-11-27T22:49:17.805Z,67.76
2022-11-27T22:51:44.639Z,68.09
2022-11-27T22:54:13.639Z,68.32
2022-11-27T22:56:40.353Z,68.51
2022-11-27T23:01:57.040Z,67.89
2022-11-27T23:04:24.871Z,68.13
2022-11-27T23:06:51.503Z,68.18
2022-11-27T23:09:19.011Z,69.36
2022-11-27T23:11:45.867Z,69.07
2022-11-27T23:14:12.355Z,69.03
2022-11-27T23:16:39.023Z,68.80
2022-11-27T23:19:05.738Z,67.48
2022-11-27T23:21:35.310Z,68.18
2022-11-27T23:24:02.069Z,67.52
2022-11-27T23:26:28.670Z,67.90
2022-11-27T23:28:55.162Z,67.85
2022-11-27T23:31:29.873Z,67.83
2022-11-27T23:33:57.196Z,68.17
2022-11-27T23:36:24.118Z,67.27
2022-11-27T23:38:50.683Z,67.82
2022-11-27T23:41:19.297Z,67.53
2022-11-27T23:43:45.907Z,67.10
2022-11-27T23:46:13.157Z,66.88
2022-11-27T23:48:39.761Z,67.62
2022-11-27T23:51:07.421Z,66.97
2022-11-27T23:53:34.016Z,67.35
2022-11-27T23:56:01.513Z,66.39
2022-11-27T23:58:33.254Z,67.46
